Time;durP1;ratioP1;P1;durP2;ratioP2;P2;SDS_P1;SDS_P2;PMS_P1;PMS_P2;Temp;Humidity;BMP_temperature;BMP_pressure;BME280_temperature;BME280_humidity;BME280_pressure;Samples;Min_cycle;Max_cycle;Signal;HPM_P1;HPM_P2
2021/12/07 00:00:03;;;;;;;23.70;13.73;;;;;;;1.85;61.12;99243.53;7630734;32;37886;-69
2021/12/07 00:04:19;;;;;;;25.23;14.35;;;;;;;1.09;63.63;99241.13;7632193;32;39998;-70
2021/12/07 00:08:36;;;;;;;24.52;13.77;;;;;;;1.44;62.46;99237.84;7631803;32;39880;-69
2021/12/07 00:12:53;;;;;;;28.12;15.35;;;;;;;1.84;61.33;99249.94;7631584;32;38696;-69
2021/12/07 00:17:09;;;;;;;28.92;15.20;;;;;;;1.85;61.21;99243.53;7631720;32;37080;-70
2021/12/07 00:21:25;;;;;;;22.80;13.60;;;;;;;1.30;63.18;99221.06;7631589;32;39323;-70
2021/12/07 00:25:41;;;;;;;26.12;13.73;;;;;;;1.41;63.12;99219.47;7631257;32;40442;-70
2021/12/07 00:29:57;;;;;;;28.38;14.20;;;;;;;1.65;62.17;99219.59;7631346;32;37924;-70
2021/12/07 00:34:27;;;;;;;26.90;14.25;;;;;;;1.74;61.76;99212.03;7631262;32;38001;-70
2021/12/07 00:38:43;;;;;;;26.87;14.05;;;;;;;1.77;61.38;99222.34;7631476;32;39412;-70
2021/12/07 00:42:59;;;;;;;27.37;15.02;;;;;;;1.94;60.97;99226.03;7631108;32;39938;-70
2021/12/07 00:47:15;;;;;;;24.77;14.25;;;;;;;1.80;61.49;99228.06;7631035;32;38008;-70
2021/12/07 00:51:32;;;;;;;24.27;13.93;;;;;;;1.84;60.96;99239.19;7630844;32;37890;-70
2021/12/07 00:55:52;;;;;;;28.65;14.10;;;;;;;1.36;62.68;99240.81;7630811;32;39172;-69
2021/12/07 01:00:16;;;;;;;26.40;13.82;;;;;;;1.31;62.52;99233.47;7630725;32;40712;-69
2021/12/07 01:04:32;;;;;;;23.50;12.93;;;;;;;1.32;62.34;99234.28;7630629;32;37881;-69
2021/12/07 01:09:00;;;;;;;29.73;15.30;;;;;;;1.47;62.40;99228.53;7633008;32;37043;-70
2021/12/07 01:27:03;;;;;;;27.33;15.13;;;;;;;1.68;61.85;99219.16;7633657;32;37475;-69
2021/12/07 01:40:28;;;;;;;25.33;14.63;;;;;;;1.50;61.92;99210.09;7633632;32;38802;-70
2021/12/07 01:50:12;;;;;;;27.17;15.63;;;;;;;1.57;61.02;99212.69;7633610;32;39947;-69
2021/12/07 02:03:29;;;;;;;25.90;14.57;;;;;;;1.99;59.02;99193.06;7633492;32;37058;-69
2021/12/07 02:07:46;;;;;;;23.85;14.27;;;;;;;1.50;60.45;99202.03;7633386;32;39983;-69
2021/12/07 02:12:04;;;;;;;28.05;14.80;;;;;;;1.15;61.61;99203.69;7633257;32;39692;-70
2021/12/07 02:16:21;;;;;;;27.15;14.10;;;;;;;1.49;60.75;99200.37;7633173;32;38518;-70
2021/12/07 02:20:37;;;;;;;27.02;14.32;;;;;;;1.65;60.10;99192.72;7632413;32;37179;-70
2021/12/07 02:24:53;;;;;;;25.88;13.57;;;;;;;1.61;60.04;99196.94;7632889;32;40009;-69
2021/12/07 02:29:10;;;;;;;29.80;15.32;;;;;;;1.34;60.90;99199.94;7632940;32;40747;-69
2021/12/07 02:33:28;;;;;;;26.35;13.98;;;;;;;1.51;60.54;99202.84;7632876;32;38576;-69
2021/12/07 02:37:45;;;;;;;26.98;14.77;;;;;;;1.55;60.82;99190.56;7632978;32;37129;-69
2021/12/07 02:42:03;;;;;;;26.92;15.10;;;;;;;1.39;60.96;99196.59;7632849;32;39962;-70
2021/12/07 02:46:19;;;;;;;26.37;14.48;;;;;;;1.24;61.81;99186.22;7632827;32;39153;-69
2021/12/07 02:50:36;;;;;;;28.73;14.25;;;;;;;1.32;61.46;99199.34;7632779;32;38583;-69
2021/12/07 02:54:53;;;;;;;27.13;13.70;;;;;;;0.96;63.05;99194.84;7633071;32;35293;-69
2021/12/07 02:59:09;;;;;;;27.27;14.82;;;;;;;0.95;63.26;99196.72;7632802;32;39209;-70
2021/12/07 03:03:26;;;;;;;27.48;15.10;;;;;;;1.14;62.59;99202.91;7632523;32;40872;-69
2021/12/07 03:08:07;;;;;;;25.27;15.10;;;;;;;1.24;62.27;99199.66;7632508;32;38840;-70
2021/12/07 03:26:10;;;;;;;27.20;14.43;;;;;;;1.58;61.00;99178.56;7631807;32;37650;-70
2021/12/07 03:30:27;;;;;;;26.30;14.38;;;;;;;1.43;61.19;99193.25;7632316;32;36213;-70
2021/12/07 03:34:43;;;;;;;25.92;13.75;;;;;;;1.37;61.73;99201.37;7632264;32;39216;-70
2021/12/07 03:38:59;;;;;;;25.70;14.60;;;;;;;1.40;61.63;99191.00;7632232;32;39942;-70
2021/12/07 03:43:15;;;;;;;26.62;14.15;;;;;;;1.41;61.65;99192.63;7632197;32;38058;-70
2021/12/07 03:47:32;;;;;;;29.63;15.35;;;;;;;1.43;61.69;99190.56;7632109;32;37939;-70
2021/12/07 03:51:48;;;;;;;29.27;14.65;;;;;;;1.56;61.48;99199.47;7632079;32;38989;-70
2021/12/07 03:56:05;;;;;;;27.65;15.13;;;;;;;1.41;61.87;99198.00;7632004;32;39679;-70
2021/12/07 04:00:24;;;;;;;28.35;14.75;;;;;;;1.39;61.85;99208.16;7630732;32;37831;-70
2021/12/07 04:04:40;;;;;;;28.95;14.57;;;;;;;1.12;62.68;99203.13;7632332;32;37876;-70
2021/12/07 04:08:56;;;;;;;25.17;15.10;;;;;;;1.37;62.08;99212.94;7631903;32;39286;-70
2021/12/07 04:13:13;;;;;;;28.45;15.38;;;;;;;1.44;61.67;99200.22;7631690;32;40012;-70
2021/12/07 04:17:29;;;;;;;27.50;16.42;;;;;;;1.12;62.60;99189.69;7631559;32;37903;-70
2021/12/07 04:21:45;;;;;;;28.45;14.65;;;;;;;1.36;62.01;99188.97;7631660;32;37244;-70
2021/12/07 04:26:04;;;;;;;26.62;14.02;;;;;;;1.31;62.10;99197.72;7631304;32;39278;-69
2021/12/07 04:30:27;;;;;;;26.98;15.00;;;;;;;1.36;61.91;99200.53;7631572;32;39925;-69
2021/12/07 04:34:43;;;;;;;;;;;;;;;1.15;62.60;99209.06;7631594;32;37947;-70
2021/12/07 04:38:59;;;;;;;25.65;15.15;;;;;;;0.91;63.14;99214.28;7631618;32;36778;-69
2021/12/07 04:43:15;;;;;;;28.58;15.30;;;;;;;1.03;63.01;99211.69;7630496;32;39400;-70
2021/12/07 04:47:44;;;;;;;25.73;14.75;;;;;;;1.38;61.92;99213.75;7630966;32;40604;-70
2021/12/07 05:01:11;;;;;;;31.58;16.02;;;;;;;1.36;61.83;99210.47;7630781;32;39238;-70
2021/12/07 05:05:33;;;;;;;30.73;16.42;;;;;;;1.45;61.68;99214.47;7630722;32;41639;-70
2021/12/07 05:14:26;;;;;;;29.87;17.40;;;;;;;1.57;61.27;99225.28;7630396;32;37226;-69
2021/12/07 05:23:52;;;;;;;26.10;14.68;;;;;;;1.63;60.78;99222.50;7630421;32;39253;-69
2021/12/07 05:41:38;;;;;;;30.08;16.40;;;;;;;0.53;64.25;99239.41;7629680;32;40778;-70
2021/12/07 05:45:55;;;;;;;27.00;15.55;;;;;;;1.24;62.20;99242.62;7628538;32;38641;-70
2021/12/07 05:50:14;;;;;;;31.08;16.85;;;;;;;1.34;61.54;99234.88;7629482;32;37931;-69
2021/12/07 05:54:30;;;;;;;24.37;13.55;;;;;;;1.81;63.74;99229.72;7631094;32;40053;-75
2021/12/07 05:58:46;;;;;;;31.20;16.77;;;;;;;2.12;68.06;99217.09;7633371;32;40763;-72
2021/12/07 06:03:06;;;;;;;28.70;16.00;;;;;;;2.06;61.53;99232.25;7633253;32;37605;-71
2021/12/07 06:07:22;;;;;;;30.55;16.25;;;;;;;2.03;60.24;99235.38;7633329;32;36974;-71
2021/12/07 06:11:39;;;;;;;28.08;16.10;;;;;;;1.97;59.23;99232.81;7633305;32;39202;-70
2021/12/07 06:15:57;;;;;;;32.80;16.10;;;;;;;1.86;59.22;99231.72;7633202;32;40149;-70
2021/12/07 06:20:14;;;;;;;29.42;15.88;;;;;;;1.81;59.22;99235.09;7633065;32;38934;-69
2021/12/07 06:24:50;;;;;;;28.17;15.98;;;;;;;1.65;59.61;99233.03;7632657;32;38078;-70
2021/12/07 06:29:06;;;;;;;26.42;15.70;;;;;;;1.48;60.43;99224.78;7632957;32;39018;-70
2021/12/07 06:33:24;;;;;;;32.28;16.73;;;;;;;1.44;60.06;99235.16;7632933;32;39786;-69
2021/12/07 06:37:41;;;;;;;32.47;16.52;;;;;;;1.72;59.71;99231.06;7632838;32;38473;-70
2021/12/07 06:41:57;;;;;;;28.90;16.00;;;;;;;1.61;59.70;99219.25;7632870;32;37194;-70
2021/12/07 06:46:13;;;;;;;29.17;15.68;;;;;;;1.68;59.34;99230.72;7632909;32;39274;-70
2021/12/07 06:50:30;;;;;;;29.55;15.43;;;;;;;1.74;58.97;99218.22;7632796;32;40653;-70
2021/12/07 06:54:46;;;;;;;32.78;16.23;;;;;;;1.48;59.28;99222.94;7632603;32;37631;-69
2021/12/07 06:59:03;;;;;;;29.37;16.90;;;;;;;1.31;59.75;99224.56;7632735;32;37707;-69
2021/12/07 07:03:19;;;;;;;29.02;16.65;;;;;;;1.28;59.59;99230.41;7632802;32;40039;-70
2021/12/07 07:07:35;;;;;;;37.28;16.95;;;;;;;1.12;59.88;99227.28;7632123;32;41020;-70
2021/12/07 07:11:51;;;;;;;29.90;17.27;;;;;;;1.03;60.30;99239.34;7632542;32;37897;-70
2021/12/07 07:16:07;;;;;;;31.30;16.85;;;;;;;1.12;59.77;99235.34;7632397;32;37290;-71
2021/12/07 07:20:24;;;;;;;28.98;17.62;;;;;;;1.22;59.70;99236.66;7632571;32;39165;-70
2021/12/07 07:24:42;;;;;;;29.17;16.83;;;;;;;1.30;59.46;99244.44;7632325;32;40830;-69
2021/12/07 07:28:59;;;;;;;32.03;17.35;;;;;;;1.26;59.65;99237.84;7632411;32;38694;-71
2021/12/07 07:33:15;;;;;;;30.27;16.50;;;;;;;1.18;59.91;99248.91;7632281;32;37365;-70
2021/12/07 07:37:31;;;;;;;30.35;17.00;;;;;;;1.27;60.10;99250.25;7632245;32;40086;-69
2021/12/07 07:41:47;;;;;;;30.27;17.37;;;;;;;1.46;59.78;99257.22;7632232;32;40898;-70
2021/12/07 07:46:03;;;;;;;30.92;17.20;;;;;;;1.34;60.18;99256.34;7632058;32;38731;-70
2021/12/07 07:50:19;;;;;;;33.92;18.67;;;;;;;1.61;59.66;99250.66;7632014;32;37113;-69
2021/12/07 07:54:35;;;;;;;39.70;21.40;;;;;;;1.59;60.04;99250.09;7631981;32;39257;-70
2021/12/07 07:58:51;;;;;;;36.65;19.55;;;;;;;1.69;59.71;99247.66;7631969;32;39873;-70
2021/12/07 08:03:08;;;;;;;36.63;19.58;;;;;;;1.87;59.31;99244.13;7631900;32;38595;-70
2021/12/07 08:07:25;;;;;;;40.65;20.27;;;;;;;2.01;59.21;99242.06;7631878;32;37853;-70
2021/12/07 08:11:41;;;;;;;53.05;25.45;;;;;;;1.49;60.04;99246.03;7631929;32;39994;-70
2021/12/07 08:15:57;;;;;;;57.30;24.45;;;;;;;1.94;59.15;99249.41;7630542;32;40834;-69
2021/12/07 08:20:13;;;;;;;36.15;19.73;;;;;;;2.03;59.67;99258.78;7631608;32;37793;-71
2021/12/07 08:24:30;;;;;;;34.38;19.80;;;;;;;2.15;58.75;99259.63;7631574;32;37157;-71
2021/12/07 08:28:46;;;;;;;37.45;19.05;;;;;;;1.97;59.84;99260.53;7631379;32;39227;-70
2021/12/07 08:33:02;;;;;;;32.35;17.30;;;;;;;2.09;58.91;99259.72;7631465;32;41242;-70
2021/12/07 08:37:18;;;;;;;30.27;16.55;;;;;;;2.23;58.10;99259.31;7631187;32;37680;-69
2021/12/07 08:41:35;;;;;;;33.95;17.42;;;;;;;2.01;59.21;99266.25;7631223;32;37771;-70
2021/12/07 08:45:52;;;;;;;28.25;15.73;;;;;;;2.04;59.36;99263.13;7631109;32;39288;-70
2021/12/07 08:50:13;;;;;;;31.35;17.02;;;;;;;2.14;59.17;99271.44;7631040;32;39769;-69
2021/12/07 09:03:26;;;;;;;23.58;13.88;;;;;;;2.66;56.89;99272.72;7630824;32;39794;-69
2021/12/07 09:07:42;;;;;;;28.55;14.63;;;;;;;2.65;56.88;99276.47;7630638;32;39731;-70
2021/12/07 09:11:58;;;;;;;27.87;14.95;;;;;;;2.10;58.97;99277.50;7630461;32;37639;-70
2021/12/07 09:16:20;;;;;;;31.42;15.45;;;;;;;2.43;59.27;99280.53;7630444;32;37864;-70
2021/12/07 09:20:36;;;;;;;27.80;15.00;;;;;;;2.47;58.90;99280.03;7630409;32;41067;-70
2021/12/07 09:24:52;;;;;;;34.72;19.17;;;;;;;2.24;58.90;99258.28;7630065;32;39654;-70
2021/12/07 09:29:09;;;;;;;27.95;16.62;;;;;;;2.75;58.25;99260.56;7632124;32;37842;-70
2021/12/07 09:33:28;;;;;;;27.70;15.18;;;;;;;2.51;58.25;99244.38;7633607;32;37924;-69
2021/12/07 09:37:44;;;;;;;26.77;14.73;;;;;;;2.97;57.50;99248.16;7633812;32;39810;-70
2021/12/07 09:42:00;;;;;;;28.30;16.95;;;;;;;2.80;57.36;99247.22;7633672;32;40004;-70
2021/12/07 09:46:17;;;;;;;31.02;15.80;;;;;;;3.07;57.55;99233.25;7633529;32;38040;-72
2021/12/07 09:50:35;;;;;;;27.92;14.80;;;;;;;3.68;63.85;99225.63;7633506;32;37958;-69
2021/12/07 09:54:53;;;;;;;25.55;14.63;;;;;;;4.20;54.67;99222.78;7633432;32;39004;-70
2021/12/07 09:59:10;;;;;;;26.55;14.85;;;;;;;4.22;54.03;99219.84;7633451;32;40882;-71
2021/12/07 10:03:26;;;;;;;27.33;14.43;;;;;;;4.19;54.08;99214.94;7633335;32;37943;-71
2021/12/07 10:07:42;;;;;;;28.05;13.98;;;;;;;4.08;52.94;99214.75;7633310;32;37789;-70
2021/12/07 10:11:58;;;;;;;28.35;13.48;;;;;;;3.84;53.19;99205.97;7632145;32;39862;-71
2021/12/07 10:16:17;;;;;;;28.02;14.90;;;;;;;4.21;54.47;99196.59;7633214;32;40676;-71
2021/12/07 10:20:39;;;;;;;31.00;14.77;;;;;;;3.71;54.53;99193.59;7633122;32;38883;-70
2021/12/07 10:24:58;;;;;;;24.20;14.02;;;;;;;3.89;55.15;99194.47;7632988;32;37157;-71
2021/12/07 10:29:20;;;;;;;31.52;15.75;;;;;;;3.53;55.71;99201.88;7633158;32;39325;-70
2021/12/07 10:33:42;;;;;;;26.00;14.27;;;;;;;3.85;55.72;99193.31;7633125;32;40056;-70
2021/12/07 10:38:11;;;;;;;29.73;15.88;;;;;;;4.53;54.73;99186.06;7632974;32;37891;-70
2021/12/07 10:42:29;;;;;;;30.48;15.02;;;;;;;4.70;53.24;99194.16;7632220;32;37873;-70
2021/12/07 10:47:00;;;;;;;27.17;15.15;;;;;;;5.04;51.98;99202.19;7632918;32;39029;-70
2021/12/07 10:51:18;;;;;;;30.15;14.90;;;;;;;4.85;54.18;99210.56;7629689;32;39986;-71
2021/12/07 10:55:39;;;;;;;28.65;15.00;;;;;;;5.43;51.21;99191.31;7628381;32;37773;-70
2021/12/07 10:59:58;;;;;;;30.50;14.68;;;;;;;5.47;51.32;99197.88;7632260;32;37137;-70
2021/12/07 11:04:23;;;;;;;30.60;15.52;;;;;;;4.78;52.81;99196.44;7631865;32;39225;-71
2021/12/07 11:08:39;;;;;;;28.95;14.50;;;;;;;5.77;50.43;99194.66;7631653;32;40799;-70
2021/12/07 11:13:23;;;;;;;27.98;14.70;;;;;;;5.23;51.31;99191.91;7631363;32;38675;-70
2021/12/07 11:17:39;;;;;;;27.60;15.95;;;;;;;4.68;52.51;99196.28;7630851;32;37201;-71
2021/12/07 11:21:55;;;;;;;27.60;14.30;;;;;;;4.57;54.32;99197.19;7631539;32;39285;-70
2021/12/07 11:30:29;;;;;;;28.50;15.73;;;;;;;3.94;54.71;99197.25;7631385;32;37850;-71
2021/12/07 11:34:46;;;;;;;31.42;14.57;;;;;;;3.82;57.18;99200.00;7631306;32;37597;-72
2021/12/07 11:39:18;;;;;;;26.45;14.75;;;;;;;4.61;53.93;99190.25;7645636;32;39933;-71
2021/12/07 11:43:34;;;;;;;28.52;15.30;;;;;;;4.65;54.90;99191.38;7647495;32;39821;-71
2021/12/07 11:47:51;;;;;;;27.77;15.13;;;;;;;3.95;56.02;99193.50;7635315;32;37803;-72
2021/12/07 11:52:09;;;;;;;29.33;15.85;;;;;;;3.95;56.95;99198.91;7631291;32;37125;-70
2021/12/07 11:56:25;;;;;;;32.22;15.88;;;;;;;4.13;57.03;99195.16;7631566;32;39954;-72
2021/12/07 12:00:44;;;;;;;33.90;17.00;;;;;;;3.89;57.59;99189.88;7631410;32;39985;-71
2021/12/07 12:05:00;;;;;;;33.83;17.02;;;;;;;4.14;58.08;99186.00;7630885;32;37848;-71
2021/12/07 12:09:18;;;;;;;37.38;19.67;;;;;;;4.34;57.69;99177.41;7631686;32;37846;-71
2021/12/07 12:13:46;;;;;;;33.85;18.70;;;;;;;3.99;58.41;99185.75;7631086;32;39255;-71
2021/12/07 12:18:21;;;;;;;36.20;18.08;;;;;;;4.53;56.20;99180.66;7600834;32;139900;-71
2021/12/07 12:23:06;;;;;;;45.55;25.98;;;;;;;4.50;55.16;99181.16;7604829;32;38751;-71
2021/12/07 12:27:30;;;;;;;32.38;18.25;;;;;;;4.09;57.14;99178.63;7604478;32;37713;-71
2021/12/07 12:31:57;;;;;;;30.45;17.48;;;;;;;4.29;56.34;99174.62;7605023;32;39891;-70
2021/12/07 12:36:13;;;;;;;35.45;17.62;;;;;;;3.98;57.56;99176.81;7604441;32;39682;-70
2021/12/07 12:40:32;;;;;;;33.80;18.83;;;;;;;3.89;57.26;99176.38;7605109;32;38805;-71
2021/12/07 12:44:55;;;;;;;35.60;18.48;;;;;;;3.63;58.01;99174.31;7604582;32;36391;-71
2021/12/07 12:49:12;;;;;;;38.50;18.53;;;;;;;4.18;56.92;99165.56;7604674;32;39318;-70
2021/12/07 12:53:34;;;;;;;29.45;15.50;;;;;;;4.22;57.01;99172.09;7603860;32;39822;-71
2021/12/07 12:57:51;;;;;;;34.17;16.95;;;;;;;3.95;57.98;99171.94;7603964;32;38535;-70
2021/12/07 13:02:07;;;;;;;36.97;17.20;;;;;;;3.40;59.82;99181.44;7604712;32;37207;-70
2021/12/07 13:06:38;;;;;;;37.63;18.87;;;;;;;3.58;58.40;99177.72;7607097;32;39397;-70
2021/12/07 13:11:06;;;;;;;37.53;19.45;;;;;;;3.65;59.26;99178.37;7607773;32;39723;-69
2021/12/07 13:15:33;;;;;;;40.92;20.25;;;;;;;3.24;60.32;99190.25;7607163;32;38715;-71
2021/12/07 13:20:10;;;;;;;35.80;18.33;;;;;;;3.82;58.94;99189.22;7605862;32;37235;-70
2021/12/07 13:24:38;;;;;;;36.83;18.10;;;;;;;3.87;58.30;99185.78;7607290;32;39055;-70
2021/12/07 13:29:11;;;;;;;36.88;20.02;;;;;;;4.16;57.67;99189.28;7607081;32;40856;-70
2021/12/07 13:33:34;;;;;;;40.17;20.55;;;;;;;4.33;58.20;99183.88;7607253;32;38689;-70
2021/12/07 13:37:50;;;;;;;39.25;19.10;;;;;;;4.48;56.64;99181.41;7607004;32;38457;-70
2021/12/07 13:42:18;;;;;;;33.15;17.70;;;;;;;4.01;56.73;99183.63;7606927;32;39391;-70
2021/12/07 13:46:34;;;;;;;37.53;18.98;;;;;;;5.72;52.11;99177.56;7607490;32;40900;-70
2021/12/07 13:50:50;;;;;;;32.58;17.15;;;;;;;5.79;50.41;99183.59;7606587;32;38712;-70
2021/12/07 13:55:14;;;;;;;32.92;16.70;;;;;;;7.24;47.52;99183.59;7606997;32;37939;-70
2021/12/07 13:59:30;;;;;;;;;;;;;;;7.32;45.77;99183.09;7606015;32;38931;-71
2021/12/07 14:03:46;;;;;;;32.53;17.77;;;;;;;7.90;44.58;99188.41;7607185;32;40021;-71
2021/12/07 14:08:05;;;;;;;33.33;16.75;;;;;;;7.21;45.38;99186.81;7606855;32;37580;-70
2021/12/07 14:12:22;;;;;;;33.22;15.75;;;;;;;8.31;43.57;99193.06;7606616;32;37026;-70
2021/12/07 14:16:39;;;;;;;35.67;17.75;;;;;;;8.95;42.36;99197.94;7606108;32;39245;-70
2021/12/07 14:20:58;;;;;;;31.67;17.37;;;;;;;8.72;41.66;99203.94;7606263;32;40671;-70
2021/12/07 14:25:17;;;;;;;28.58;15.05;;;;;;;8.78;41.58;99202.84;7606910;32;36730;-70
2021/12/07 14:29:33;;;;;;;34.05;15.55;;;;;;;7.95;42.93;99212.84;7606217;32;37932;-70
2021/12/07 14:33:58;;;;;;;32.33;16.87;;;;;;;6.53;47.12;99214.59;7606235;32;40040;-69
2021/12/07 14:38:14;;;;;;;30.62;16.55;;;;;;;5.81;48.68;99222.03;7606807;32;40565;-69
2021/12/07 14:42:31;;;;;;;34.35;16.52;;;;;;;4.99;51.11;99212.94;7605886;32;38476;-69
2021/12/07 14:46:49;;;;;;;37.97;18.00;;;;;;;4.69;52.60;99222.19;7606775;32;37537;-70
2021/12/07 14:51:23;;;;;;;28.02;15.07;;;;;;;4.47;53.96;99231.06;7605937;32;39431;-69
2021/12/07 14:55:40;;;;;;;35.10;17.60;;;;;;;4.36;54.19;99242.75;7608487;32;40876;-70
2021/12/07 14:59:58;;;;;;;39.97;18.08;;;;;;;3.11;57.63;99247.91;7632092;32;38662;-69
2021/12/07 15:04:15;;;;;;;37.38;18.45;;;;;;;3.67;56.65;99243.66;7632158;32;36292;-70
2021/12/07 15:08:33;;;;;;;34.53;17.60;;;;;;;3.65;56.43;99248.47;7632495;32;39275;-70
2021/12/07 15:12:49;;;;;;;32.85;16.42;;;;;;;3.42;57.17;99248.56;7631476;32;39978;-70
2021/12/07 15:17:07;;;;;;;33.33;16.42;;;;;;;3.62;56.50;99254.34;7632158;32;38661;-69
2021/12/07 15:21:28;;;;;;;41.03;18.45;;;;;;;3.67;55.62;99256.31;7631768;32;36127;-69
2021/12/07 15:25:52;;;;;;;36.50;17.33;;;;;;;3.46;56.71;99263.19;7629921;32;39715;-69
2021/12/07 15:30:08;;;;;;;33.38;18.25;;;;;;;2.71;61.00;99260.22;7632346;32;39755;-70
2021/12/07 15:34:26;;;;;;;38.40;19.05;;;;;;;3.28;57.39;99258.78;7629933;32;37731;-70
2021/12/07 15:38:42;;;;;;;42.00;21.05;;;;;;;3.32;56.80;99252.66;7632210;32;36432;-70
2021/12/07 15:42:58;;;;;;;40.97;19.83;;;;;;;3.49;56.16;99257.31;7631508;32;37432;-70
2021/12/07 15:47:20;;;;;;;41.70;19.50;;;;;;;3.12;57.17;99255.75;7646140;32;39424;-70
2021/12/07 15:51:45;;;;;;;45.28;19.98;;;;;;;3.09;57.57;99241.94;7657552;32;36954;-69
2021/12/07 15:56:01;;;;;;;38.25;17.42;;;;;;;2.65;58.38;99254.94;7656507;32;37164;-69
2021/12/07 16:00:23;;;;;;;35.53;18.58;;;;;;;3.16;57.61;99261.50;7653176;32;40078;-70
2021/12/07 16:04:41;;;;;;;36.67;17.27;;;;;;;2.99;58.48;99258.69;7630769;32;40017;-69
2021/12/07 16:08:57;;;;;;;41.22;19.52;;;;;;;3.36;57.51;99253.84;7644657;32;38730;-70
2021/12/07 16:13:16;;;;;;;39.80;19.20;;;;;;;3.13;58.49;99262.75;7656887;32;37263;-69
2021/12/07 16:17:32;;;;;;;40.25;18.40;;;;;;;2.79;58.99;99261.72;7657277;32;40092;-71
2021/12/07 16:21:49;;;;;;;37.70;19.15;;;;;;;2.98;58.68;99265.12;7657699;32;37860;-70
2021/12/07 16:26:08;;;;;;;32.22;17.27;;;;;;;2.67;59.60;99268.97;7656627;32;38840;-71
2021/12/07 16:30:25;;;;;;;35.00;16.70;;;;;;;2.47;60.19;99263.91;7657565;32;37206;-71
2021/12/07 16:34:41;;;;;;;38.88;17.90;;;;;;;2.31;60.98;99281.53;7656395;32;39856;-68
2021/12/07 16:39:05;;;;;;;37.35;18.40;;;;;;;2.48;60.31;99271.75;7656018;32;40046;-68
2021/12/07 16:43:21;;;;;;;35.78;19.05;;;;;;;2.28;60.97;99284.69;7656603;32;38739;-70
2021/12/07 16:47:37;;;;;;;36.85;17.98;;;;;;;2.58;60.05;99280.06;7656839;32;37321;-68
2021/12/07 16:51:53;;;;;;;37.70;18.02;;;;;;;2.44;60.42;99286.72;7656789;32;40089;-68
2021/12/07 16:56:15;;;;;;;41.80;19.45;;;;;;;2.59;60.23;99286.28;7656089;32;40206;-70
2021/12/07 17:00:33;;;;;;;41.53;20.02;;;;;;;2.38;61.07;99290.31;7656694;32;37935;-70
2021/12/07 17:04:50;;;;;;;46.90;20.00;;;;;;;2.38;60.73;99282.25;7655664;32;37513;-69
2021/12/07 17:09:07;;;;;;;40.15;20.37;;;;;;;2.52;60.20;99267.56;7656824;32;40610;-69
2021/12/07 17:13:23;;;;;;;40.55;19.23;;;;;;;2.41;60.53;99287.19;7656866;32;40607;-69
2021/12/07 17:17:39;;;;;;;44.67;20.85;;;;;;;2.60;60.17;99286.06;7656720;32;37997;-70
2021/12/07 17:21:56;;;;;;;43.28;20.30;;;;;;;2.23;61.52;99278.13;7656522;32;37991;-69
2021/12/07 17:26:12;;;;;;;38.83;19.80;;;;;;;2.29;61.45;99284.47;7655575;32;40196;-71
2021/12/07 17:30:28;;;;;;;41.42;19.58;;;;;;;2.38;60.88;99283.09;7656302;32;40608;-69
2021/12/07 17:34:44;;;;;;;43.03;19.00;;;;;;;2.20;61.45;99291.22;7656053;32;37581;-71
2021/12/07 17:39:05;;;;;;;41.13;19.40;;;;;;;2.17;61.40;99294.38;7656090;32;37107;-69
2021/12/07 17:43:23;;;;;;;38.58;19.42;;;;;;;1.90;62.37;99305.50;7655999;32;40158;-68
2021/12/07 17:47:40;;;;;;;40.30;20.37;;;;;;;2.09;61.50;99295.53;7629345;32;38936;-68
2021/12/07 17:51:55;;;;;;;44.05;21.00;;;;;;;2.19;61.25;99294.94;7629780;32;37891;-69
2021/12/07 17:56:11;;;;;;;39.70;20.27;;;;;;;1.93;62.07;99298.81;7629425;32;38133;-69
2021/12/07 18:00:30;;;;;;;41.28;21.40;;;;;;;2.03;61.74;99299.91;7632760;32;39267;-70
2021/12/07 18:04:50;;;;;;;46.03;25.47;;;;;;;2.13;60.73;99302.06;7632793;32;40531;-68
2021/12/07 18:09:06;;;;;;;41.20;20.15;;;;;;;2.16;60.28;99306.19;7632762;32;37996;-69
2021/12/07 18:13:22;;;;;;;47.90;21.15;;;;;;;2.11;60.79;99314.94;7638713;32;37220;-69
2021/12/07 18:17:39;;;;;;;45.15;20.40;;;;;;;1.95;61.83;99320.94;7649157;32;39343;-68
2021/12/07 18:21:55;;;;;;;47.10;19.92;;;;;;;2.21;60.90;99325.97;7658835;32;40859;-68
2021/12/07 18:26:20;;;;;;;45.20;20.77;;;;;;;2.24;60.17;99322.81;7658633;32;37873;-68
2021/12/07 18:30:39;;;;;;;40.53;20.15;;;;;;;2.33;59.29;99322.47;7658792;32;37149;-69
2021/12/07 18:34:55;;;;;;;41.75;19.40;;;;;;;2.16;60.40;99330.41;7658831;32;39265;-68
2021/12/07 18:39:11;;;;;;;35.40;18.85;;;;;;;2.17;60.58;99330.13;7658694;32;39885;-68
2021/12/07 18:43:29;;;;;;;44.83;20.83;;;;;;;2.09;61.00;99338.53;7655844;32;38048;-69
2021/12/07 18:47:46;;;;;;;42.95;20.98;;;;;;;1.90;61.70;99339.59;7632280;32;39351;-68
2021/12/07 18:52:03;;;;;;;45.15;20.88;;;;;;;1.82;62.36;99344.25;7645774;32;39324;-70
2021/12/07 18:56:20;;;;;;;43.35;20.33;;;;;;;1.72;62.65;99345.81;7650602;32;39777;-69
2021/12/07 19:00:39;;;;;;;38.25;21.05;;;;;;;1.22;64.31;99358.31;7657649;32;37662;-70
2021/12/07 19:04:55;;;;;;;48.50;20.02;;;;;;;1.52;63.51;99354.09;7657418;32;38080;-68
2021/12/07 19:09:11;;;;;;;40.97;20.20;;;;;;;1.31;63.89;99354.31;7658901;32;40063;-68
2021/12/07 19:13:28;;;;;;;41.08;21.55;;;;;;;1.81;62.23;99348.00;7656103;32;40693;-68
2021/12/07 19:17:47;;;;;;;46.83;21.58;;;;;;;1.75;62.37;99343.50;7658608;32;38614;-68
2021/12/07 19:22:03;;;;;;;45.70;20.98;;;;;;;1.74;62.42;99347.22;7658724;32;37932;-68
2021/12/07 19:26:21;;;;;;;40.78;21.12;;;;;;;1.59;63.06;99347.63;7658487;32;39292;-69
2021/12/07 19:30:37;;;;;;;43.35;21.08;;;;;;;1.25;63.92;99359.75;7658608;32;40074;-68
2021/12/07 19:34:53;;;;;;;46.40;23.05;;;;;;;1.25;64.31;99357.06;7658501;32;37870;-69
2021/12/07 19:39:09;;;;;;;49.50;23.12;;;;;;;1.50;63.70;99354.31;7658441;32;37218;-70
2021/12/07 19:43:26;;;;;;;54.35;23.58;;;;;;;1.28;63.77;99353.94;7658451;32;39234;-69
2021/12/07 19:47:43;;;;;;;48.10;23.60;;;;;;;1.48;63.08;99359.94;7658499;32;40807;-69
2021/12/07 19:52:00;;;;;;;105.55;40.53;;;;;;;1.80;61.25;99354.41;7658208;32;37854;-68
2021/12/07 19:56:19;;;;;;;150.65;58.08;;;;;;;1.83;60.69;99350.47;7658319;32;38251;-69
2021/12/07 20:00:40;;;;;;;89.20;36.33;;;;;;;1.89;60.13;99352.22;7658238;32;39247;-69
2021/12/07 20:04:56;;;;;;;92.60;38.70;;;;;;;1.84;59.79;99352.09;7658210;32;40024;-68
2021/12/07 20:09:14;;;;;;;59.25;25.77;;;;;;;1.83;59.78;99351.28;7658037;32;38709;-71
2021/12/07 20:13:31;;;;;;;51.80;23.85;;;;;;;1.88;59.61;99343.34;7656920;32;37401;-69
2021/12/07 20:17:48;;;;;;;54.17;25.85;;;;;;;1.90;59.22;99344.97;7657927;32;40062;-69
2021/12/07 20:22:05;;;;;;;48.97;24.05;;;;;;;1.90;59.27;99339.59;7657988;32;41223;-68
2021/12/07 20:26:24;;;;;;;68.60;29.12;;;;;;;1.98;58.96;99344.69;7657845;32;37930;-68
2021/12/07 20:30:59;;;;;;;50.10;23.48;;;;;;;1.59;60.14;99338.75;7657850;32;38054;-68
2021/12/07 20:35:15;;;;;;;46.00;21.77;;;;;;;1.71;59.38;99342.31;7657594;32;39230;-67
2021/12/07 20:39:31;;;;;;;57.92;26.25;;;;;;;1.92;59.00;99334.84;7657463;32;40777;-68
2021/12/07 20:43:53;;;;;;;51.83;23.52;;;;;;;1.81;59.16;99337.25;7657418;32;37930;-69
2021/12/07 20:48:11;;;;;;;38.90;20.83;;;;;;;1.84;59.10;99334.09;7657486;32;37330;-68
2021/12/07 20:52:27;;;;;;;46.25;21.60;;;;;;;1.82;59.20;99328.13;7657504;32;39921;-69
2021/12/07 20:56:43;;;;;;;58.28;26.33;;;;;;;1.86;59.09;99326.62;7657073;32;40814;-68
2021/12/07 21:00:59;;;;;;;43.87;21.67;;;;;;;1.77;59.27;99329.84;7657048;32;38059;-68
2021/12/07 21:05:19;;;;;;;41.60;21.70;;;;;;;1.63;59.92;99337.25;7657028;32;37294;-68
2021/12/07 21:09:35;;;;;;;49.08;22.80;;;;;;;1.61;59.57;99331.28;7656981;32;40070;-69
2021/12/07 21:14:01;;;;;;;45.10;22.33;;;;;;;1.35;60.36;99338.59;7656857;32;40815;-70
2021/12/07 21:18:17;;;;;;;41.90;21.67;;;;;;;1.21;60.62;99342.41;7656409;32;37863;-68
2021/12/07 21:22:34;;;;;;;50.35;22.60;;;;;;;1.26;60.50;99339.91;7656660;32;37368;-69
2021/12/07 21:26:51;;;;;;;40.75;21.37;;;;;;;1.39;59.63;99355.88;7659852;32;39125;-68
2021/12/07 21:31:07;;;;;;;44.13;20.48;;;;;;;1.21;60.34;99345.94;7659952;32;40820;-69
2021/12/07 21:35:23;;;;;;;43.95;21.40;;;;;;;1.34;64.71;99344.97;7659872;32;37839;-68
2021/12/07 21:39:41;;;;;;;43.30;21.50;;;;;;;1.17;62.14;99360.03;7659840;32;37335;-68